Tropical Cyclones
[Index]
Main Index Home Page Stock Weather Photos Extreme Storms Discussion Storm News and Storm Chasing Reports Tropical Cyclones / Hurricanes / Typhoons Weather Data and Links Wild Fires / Bushfires Weather Observation Techniques Weather Picture Catalogue Tornado Pictures and Reports Stock Video Footage and DVDs for sale
Season 1984-1985 Tropical Cyclone LINDSAY Track Map
Season 1984-1985 Summaries: [BoM-AU] [JTWC-AU] [JTWC-SIO] [JTWC-SPAC] [JTWC-SH]
<<- Previous TC | BoM 1984-1985 Season | Next TC ->>

click for intensity scale information  Lat/long Grid: Show Hide

 Date Labels: Show Hide

Bureau of Meteorology Tropical Cyclone Data

Name: LINDSAY
Number: 675 / 198485_13

06 Mar 1985 00:00 UTC to 11 Mar 1985 18:00 UTC

    date/time    lat    long    hPa   cat  kts
1985-03-06 00    9.2   117.6   1006                     
1985-03-06 06    9.5   117.6   1004                     
1985-03-06 12    9.8   117.8   1002                     
1985-03-06 18    9.9   118.4   1001                     
1985-03-07 00    9.9   119.1   1000                     
1985-03-07 06   10.2   119.8    998         33          
1985-03-07 12   10.7   119.3    993    1    43          
1985-03-07 18   11.0   118.4    987    1    51          
1985-03-08 00   11.4   117.7    982    2    58          
1985-03-08 06   12.1   117.2    979    2    62          
1985-03-08 12   13.1   117.9    976    2    66          
1985-03-08 18   14.1   118.8    963    3    82          
1985-03-09 00   15.1   119.9    957    3    87          
1985-03-09 06   16.2   120.8    950    4    95          
1985-03-09 09   16.8   121.1    954    4    91          
1985-03-09 12   17.3   121.4    956    3    89          
1985-03-09 16   18.0   122.0    958    3    86          
1985-03-09 18   18.4   122.2    962    3    82          
1985-03-09 21   19.1   122.4    966    3    78          
1985-03-10 00   19.8   122.6    970    3    74          
1985-03-10 03   20.4   122.8    973    2    70          
1985-03-10 06   20.9   123.2    976    2    66          
1985-03-10 09   21.3   123.8    980    2    60          
1985-03-10 12   21.8   124.5    984    2    54          
1985-03-10 18   23.0   125.9    990    1    47          
1985-03-11 00   24.0   126.9    994    1    41          
1985-03-11 06   25.3   127.5    995    1    39          
1985-03-11 12   26.9   128.4    997                     
1985-03-11 18   28.4   129.8    998                     
Winds are 10-min average.

Tropical cyclone tracks developed by Michael Bath using data from the Bureau of Meteorology and Google Maps.


[Australian Severe Weather index] [Copyright Notice] [Email Contacts] [Search This Site] [Privacy Policy]
Document: tropical_cyclone_lindsay.htm Updated: 30 May 2013